Wetterdaten: Woche 09.01.06 - 15.01.06 (KW2)
Datum Zeit Temperatur Luftfeuchte Luftdruck Niederschlag Wind Richtung Sonne Solar Taupunkt Windchill
09.01.2006 00:00 -3.8 C 76 % 1030.6 hPa 0.0 l/m 5.8 km/h (2 Bft) O-SO 0.00 h 0 W/m -7.4 C -6.0 C
09.01.2006 01:00 -4.0 C 75 % 1030.6 hPa 0.0 l/m 0.1 km/h (0 Bft) N 0.00 h 0 W/m -7.7 C -4.0 C
09.01.2006 02:00 -4.2 C 76 % 1030.1 hPa 0.0 l/m 0.1 km/h (0 Bft) N 0.00 h 0 W/m -7.8 C -4.2 C
09.01.2006 03:00 -4.2 C 77 % 1029.6 hPa 0.0 l/m 0.0 km/h (0 Bft) N 0.00 h 0 W/m -7.7 C -4.2 C
09.01.2006 04:00 -4.3 C 77 % 1030.4 hPa 0.0 l/m 0.4 km/h (0 Bft) O 0.00 h 0 W/m -7.7 C -4.4 C
09.01.2006 05:00 -4.3 C 77 % 1030.5 hPa 0.0 l/m 0.5 km/h (0 Bft) O-SO 0.00 h 0 W/m -7.7 C -4.5 C
09.01.2006 06:00 -4.5 C 77 % 1030.6 hPa 0.0 l/m 2.0 km/h (1 Bft) O-SO 0.00 h 0 W/m -7.9 C -5.2 C
09.01.2006 07:00 -4.5 C 77 % 1030.7 hPa 0.0 l/m 0.2 km/h (0 Bft) O 0.00 h 0 W/m -7.9 C -4.5 C
09.01.2006 08:00 -4.5 C 77 % 1031.1 hPa 0.0 l/m 1.7 km/h (1 Bft) O-SO 0.00 h 6 W/m -8.0 C -5.0 C
09.01.2006 09:00 -4.4 C 76 % 1031.7 hPa 0.0 l/m 1.8 km/h (1 Bft) O-SO 0.00 h 21 W/m -8.0 C -5.1 C
09.01.2006 10:00 -4.2 C 74 % 1031.7 hPa 0.0 l/m 0.3 km/h (0 Bft) O-SO 0.00 h 51 W/m -8.2 C -4.2 C
09.01.2006 11:00 -3.7 C 72 % 1031.6 hPa 0.0 l/m 0.3 km/h (0 Bft) O-SO 0.00 h 73 W/m -8.0 C -3.8 C
09.01.2006 12:00 -3.3 C 71 % 1030.5 hPa 0.0 l/m 1.4 km/h (1 Bft) O-NO 0.00 h 80 W/m -7.8 C -3.8 C
09.01.2006 13:00 -3.0 C 70 % 1030.2 hPa 0.0 l/m 1.2 km/h (1 Bft) O-SO 0.00 h 89 W/m -7.7 C -3.4 C
09.01.2006 14:00 -2.7 C 68 % 1029.6 hPa 0.0 l/m 0.9 km/h (0 Bft) O-SO 0.00 h 81 W/m -7.7 C -3.0 C
09.01.2006 15:00 -2.7 C 69 % 1030.1 hPa 0.0 l/m 0.3 km/h (0 Bft) O-SO 0.00 h 45 W/m -7.6 C -2.7 C
09.01.2006 16:00 -2.9 C 70 % 1030.5 hPa 0.0 l/m 0.1 km/h (0 Bft) N 0.00 h 13 W/m -7.5 C -2.9 C
09.01.2006 17:00 -3.3 C 71 % 1030.5 hPa 0.0 l/m 0.1 km/h (0 Bft) N 0.00 h 0 W/m -7.7 C -3.3 C
09.01.2006 18:00 -3.4 C 73 % 1030.5 hPa 0.0 l/m 0.0 km/h (0 Bft) N 0.00 h 0 W/m -7.6 C -3.4 C
09.01.2006 19:00 -3.4 C 73 % 1031.2 hPa 0.0 l/m 0.0 km/h (0 Bft) N 0.00 h 0 W/m -7.5 C -3.4 C
09.01.2006 20:00 -3.5 C 74 % 1031.6 hPa 0.0 l/m 0.3 km/h (0 Bft) O 0.00 h 0 W/m -7.5 C -3.5 C
09.01.2006 21:00 -3.7 C 75 % 1031.6 hPa 0.0 l/m 0.0 km/h (0 Bft) N 0.00 h 0 W/m -7.5 C -3.7 C
09.01.2006 22:00 -3.9 C 75 % 1031.7 hPa 0.0 l/m 0.3 km/h (0 Bft) O-SO 0.00 h 0 W/m -7.6 C -3.9 C
09.01.2006 23:00 -3.8 C 76 % 1031.6 hPa 0.0 l/m 0.0 km/h (0 Bft) N 0.00 h 0 W/m -7.4 C -3.8 C
10.01.2006 00:00 -3.7 C 77 % 1032.3 hPa 0.0 l/m 0.4 km/h (0 Bft) O-SO 0.00 h 0 W/m -7.1 C -3.7 C
10.01.2006 01:00 -3.9 C 78 % 1032.7 hPa 0.0 l/m 0.7 km/h (0 Bft) SO 0.00 h 0 W/m -7.2 C -3.9 C
10.01.2006 02:00 -4.2 C 78 % 1032.7 hPa 0.0 l/m 0.6 km/h (0 Bft) SW 0.00 h 0 W/m -7.4 C -4.2 C
10.01.2006 03:00 -4.4 C 78 % 1032.8 hPa 0.0 l/m 0.4 km/h (0 Bft) O-SO 0.00 h 0 W/m -7.7 C -4.4 C
10.01.2006 04:00 -4.5 C 77 % 1032.8 hPa 0.0 l/m 1.1 km/h (1 Bft) SO 0.00 h 0 W/m -7.9 C -4.7 C
10.01.2006 05:00 -4.5 C 77 % 1032.8 hPa 0.0 l/m 3.0 km/h (1 Bft) O-SO 0.00 h 0 W/m -7.9 C -5.7 C
10.01.2006 06:00 -4.5 C 77 % 1032.8 hPa 0.0 l/m 1.3 km/h (1 Bft) SO 0.00 h 0 W/m -7.9 C -4.9 C
10.01.2006 07:00 -4.7 C 77 % 1033.0 hPa 0.0 l/m 1.4 km/h (1 Bft) O-SO 0.00 h 0 W/m -8.1 C -5.2 C
10.01.2006 08:00 -4.7 C 76 % 1033.8 hPa 0.0 l/m 0.3 km/h (0 Bft) S-SO 0.00 h 8 W/m -8.2 C -4.7 C
10.01.2006 09:00 -4.4 C 75 % 1033.8 hPa 0.0 l/m 1.1 km/h (1 Bft) SO 0.00 h 29 W/m -8.1 C -4.6 C
10.01.2006 10:00 -4.2 C 74 % 1034.8 hPa 0.0 l/m 0.1 km/h (0 Bft) N 0.00 h 55 W/m -8.2 C -4.2 C
10.01.2006 11:00 -3.7 C 72 % 1034.5 hPa 0.0 l/m 1.5 km/h (1 Bft) O-SO 0.00 h 95 W/m -8.1 C -4.2 C
10.01.2006 12:00 -3.6 C 70 % 1033.9 hPa 0.0 l/m 0.1 km/h (0 Bft) N 0.00 h 129 W/m -8.2 C -3.6 C
10.01.2006 13:00 -3.2 C 69 % 1033.6 hPa 0.0 l/m 1.0 km/h (0 Bft) W-SW 0.00 h 128 W/m -8.0 C -3.4 C
10.01.2006 14:00 -3.0 C 69 % 1032.8 hPa 0.0 l/m 1.5 km/h (1 Bft) W 0.00 h 105 W/m -7.9 C -3.5 C
10.01.2006 15:00 -3.2 C 70 % 1032.6 hPa 0.0 l/m 3.5 km/h (1 Bft) NW 0.00 h 58 W/m -7.9 C -4.5 C
10.01.2006 16:00 -3.4 C 71 % 1032.6 hPa 0.0 l/m 1.3 km/h (1 Bft) NW 0.00 h 17 W/m -7.9 C -3.7 C
10.01.2006 17:00 -3.7 C 73 % 1033.3 hPa 0.0 l/m 0.1 km/h (0 Bft) N 0.00 h 0 W/m -7.8 C -3.7 C
10.01.2006 18:00 -3.6 C 75 % 1033.7 hPa 0.0 l/m 0.0 km/h (0 Bft) N 0.00 h 0 W/m -7.4 C -3.6 C
10.01.2006 19:00 -3.7 C 75 % 1033.7 hPa 0.0 l/m 0.0 km/h (0 Bft) N 0.00 h 0 W/m -7.5 C -3.7 C
10.01.2006 20:00 -3.9 C 76 % 1033.7 hPa 0.0 l/m 0.3 km/h (0 Bft) O-SO 0.00 h 0 W/m -7.5 C -3.9 C
10.01.2006 21:00 -4.2 C 77 % 1033.8 hPa 0.0 l/m 0.3 km/h (0 Bft) O-SO 0.00 h 0 W/m -7.7 C -4.3 C
10.01.2006 22:00 -4.4 C 78 % 1033.8 hPa 0.0 l/m 0.7 km/h (0 Bft) O-SO 0.00 h 0 W/m -7.7 C -4.7 C
10.01.2006 23:00 -4.6 C 78 % 1033.9 hPa 0.0 l/m 0.6 km/h (0 Bft) NO 0.00 h 0 W/m -8.0 C -4.8 C
11.01.2006 00:00 -4.9 C 78 % 1033.9 hPa 0.0 l/m 0.8 km/h (0 Bft) O-SO 0.00 h 0 W/m -8.2 C -5.1 C
11.01.2006 01:00 -5.0 C 78 % 1033.7 hPa 0.0 l/m 1.9 km/h (1 Bft) O-SO 0.00 h 0 W/m -8.2 C -5.5 C
11.01.2006 02:00 -5.1 C 78 % 1033.9 hPa 0.0 l/m 0.1 km/h (0 Bft) SO 0.00 h 0 W/m -8.2 C -5.1 C
11.01.2006 03:00 -5.2 C 80 % 1033.5 hPa 0.0 l/m 0.8 km/h (0 Bft) SO 0.00 h 0 W/m -8.2 C -5.5 C
11.01.2006 04:00 -5.5 C 80 % 1032.9 hPa 0.0 l/m 2.6 km/h (1 Bft) O-SO 0.00 h 0 W/m -8.3 C -6.5 C
11.01.2006 05:00 -5.5 C 80 % 1033.1 hPa 0.0 l/m 2.8 km/h (1 Bft) O-SO 0.00 h 0 W/m -8.4 C -6.4 C
11.01.2006 06:00 -5.6 C 78 % 1034.0 hPa 0.0 l/m 1.4 km/h (1 Bft) O-SO 0.00 h 0 W/m -8.8 C -5.9 C
11.01.2006 07:00 -5.4 C 76 % 1034.0 hPa 0.0 l/m 4.0 km/h (1 Bft) O-SO 0.00 h 0 W/m -9.0 C -7.1 C
11.01.2006 08:00 -5.2 C 75 % 1034.0 hPa 0.0 l/m 1.8 km/h (1 Bft) SO 0.00 h 8 W/m -9.0 C -5.7 C
11.01.2006 09:00 -5.0 C 73 % 1034.5 hPa 0.0 l/m 2.5 km/h (1 Bft) SO 0.00 h 35 W/m -9.1 C -5.7 C
11.01.2006 10:00 -4.5 C 72 % 1034.9 hPa 0.0 l/m 4.1 km/h (1 Bft) SO 0.00 h 66 W/m -8.8 C -6.2 C
11.01.2006 11:00 -3.9 C 69 % 1034.7 hPa 0.0 l/m 3.0 km/h (1 Bft) SO 0.00 h 109 W/m -8.8 C -5.0 C
11.01.2006 12:00 -3.2 C 65 % 1033.6 hPa 0.0 l/m 3.4 km/h (1 Bft) O-SO 0.03 h 164 W/m -8.8 C -4.3 C
11.01.2006 13:00 -2.1 C 62 % 1032.8 hPa 0.0 l/m 1.8 km/h (1 Bft) SO 1.00 h 311 W/m -8.3 C -2.6 C
11.01.2006 14:00 -1.3 C 60 % 1032.3 hPa 0.0 l/m 2.0 km/h (1 Bft) SO 1.00 h 263 W/m -8.1 C -1.6 C
11.01.2006 15:00 -1.5 C 61 % 1032.3 hPa 0.0 l/m 2.7 km/h (1 Bft) S 1.00 h 154 W/m -8.1 C -2.3 C
11.01.2006 16:00 -2.8 C 67 % 1032.5 hPa 0.0 l/m 0.6 km/h (0 Bft) W-NW 0.23 h 38 W/m -8.1 C -3.0 C
11.01.2006 17:00 -4.9 C 73 % 1033.7 hPa 0.0 l/m 0.3 km/h (0 Bft) SW 0.00 h 0 W/m -9.0 C -5.0 C
11.01.2006 18:00 -5.7 C 78 % 1034.0 hPa 0.0 l/m 0.7 km/h (0 Bft) O-SO 0.00 h 0 W/m -8.9 C -5.9 C
11.01.2006 19:00 -6.5 C 79 % 1034.2 hPa 0.0 l/m 0.0 km/h (0 Bft) N 0.00 h 0 W/m -9.5 C -6.5 C
11.01.2006 20:00 -7.0 C 81 % 1034.5 hPa 0.0 l/m 0.5 km/h (0 Bft) O-SO 0.00 h 0 W/m -9.6 C -7.2 C
11.01.2006 21:00 -7.5 C 80 % 1034.7 hPa 0.0 l/m 0.0 km/h (0 Bft) N 0.00 h 0 W/m -10.4 C -7.5 C
11.01.2006 22:00 -8.0 C 78 % 1034.6 hPa 0.0 l/m 0.0 km/h (0 Bft) N 0.00 h 0 W/m -11.1 C -8.0 C
11.01.2006 23:00 -8.0 C 78 % 1034.8 hPa 0.0 l/m 0.0 km/h (0 Bft) N 0.00 h 0 W/m -11.1 C -8.0 C
12.01.2006 00:00 -7.3 C 80 % 1034.7 hPa 0.0 l/m 0.0 km/h (0 Bft) N 0.00 h 0 W/m -10.1 C -7.3 C
12.01.2006 01:00 -6.4 C 82 % 1035.2 hPa 0.0 l/m 0.0 km/h (0 Bft) N 0.00 h 0 W/m -8.9 C -6.4 C
12.01.2006 02:00 -5.9 C 82 % 1035.1 hPa 0.0 l/m 0.1 km/h (0 Bft) O-SO 0.00 h 0 W/m -8.5 C -5.9 C
12.01.2006 03:00 -5.7 C 83 % 1035.1 hPa 0.0 l/m 2.2 km/h (1 Bft) O-SO 0.00 h 0 W/m -8.2 C -6.6 C
12.01.2006 04:00 -5.8 C 83 % 1035.1 hPa 0.0 l/m 3.6 km/h (1 Bft) O-SO 0.00 h 0 W/m -8.2 C -7.3 C
12.01.2006 05:00 -6.0 C 82 % 1035.1 hPa 0.0 l/m 0.0 km/h (0 Bft) N 0.00 h 0 W/m -8.5 C -6.0 C
12.01.2006 06:00 -6.4 C 82 % 1035.2 hPa 0.0 l/m 0.2 km/h (0 Bft) O 0.00 h 0 W/m -9.1 C -6.4 C
12.01.2006 07:00 -6.3 C 82 % 1035.2 hPa 0.0 l/m 0.0 km/h (0 Bft) N 0.00 h 0 W/m -8.9 C -6.3 C
12.01.2006 08:00 -6.3 C 81 % 1035.2 hPa 0.0 l/m 0.1 km/h (0 Bft) N 0.00 h 15 W/m -9.0 C -6.3 C
12.01.2006 09:00 -5.4 C 78 % 1035.0 hPa 0.0 l/m 0.0 km/h (0 Bft) N 0.00 h 64 W/m -8.5 C -5.4 C
12.01.2006 10:00 -4.5 C 74 % 1034.9 hPa 0.0 l/m 0.0 km/h (0 Bft) N 0.00 h 150 W/m -8.5 C -4.5 C
12.01.2006 11:00 -3.3 C 70 % 1033.9 hPa 0.0 l/m 0.0 km/h (0 Bft) N 0.70 h 241 W/m -8.0 C -3.3 C
12.01.2006 12:00 -2.1 C 66 % 1033.1 hPa 0.0 l/m 0.9 km/h (0 Bft) N-NO 0.52 h 241 W/m -7.5 C -2.1 C
12.01.2006 13:00 -1.4 C 65 % 1032.3 hPa 0.0 l/m 2.3 km/h (1 Bft) W-NW 0.10 h 203 W/m -7.1 C -2.0 C
12.01.2006 14:00 -0.6 C 65 % 1031.8 hPa 0.0 l/m 0.7 km/h (0 Bft) NW 0.77 h 188 W/m -6.4 C -0.6 C
12.01.2006 15:00 -0.4 C 64 % 1031.1 hPa 0.0 l/m 1.7 km/h (1 Bft) W-NW 0.73 h 123 W/m -6.4 C -0.6 C
12.01.2006 16:00 -1.3 C 67 % 1031.3 hPa 0.0 l/m 0.0 km/h (0 Bft) N 0.03 h 32 W/m -6.6 C -1.3 C
12.01.2006 17:00 -2.7 C 73 % 1032.4 hPa 0.0 l/m 0.4 km/h (0 Bft) W-NW 0.00 h 0 W/m -6.8 C -2.8 C
12.01.2006 18:00 -3.3 C 79 % 1032.6 hPa 0.0 l/m 0.0 km/h (0 Bft) N 0.00 h 0 W/m -6.4 C -3.3 C
12.01.2006 19:00 -4.2 C 82 % 1032.7 hPa 0.0 l/m 0.0 km/h (0 Bft) N 0.00 h 0 W/m -6.8 C -4.2 C
12.01.2006 20:00 -5.1 C 81 % 1032.9 hPa 0.0 l/m 0.0 km/h (0 Bft) N 0.00 h 0 W/m -7.8 C -5.1 C
12.01.2006 21:00 -5.8 C 82 % 1033.0 hPa 0.0 l/m 1.0 km/h (0 Bft) NO 0.00 h 0 W/m -8.3 C -6.0 C
12.01.2006 22:00 -6.6 C 82 % 1032.9 hPa 0.0 l/m 0.3 km/h (0 Bft) NO 0.00 h 0 W/m -9.2 C -6.6 C
12.01.2006 23:00 -7.0 C 82 % 1032.5 hPa 0.0 l/m 0.0 km/h (0 Bft) N 0.00 h 0 W/m -9.5 C -7.0 C
13.01.2006 00:00 -6.2 C 84 % 1032.8 hPa 0.0 l/m 0.3 km/h (0 Bft) NO 0.00 h 0 W/m -8.3 C -6.2 C
13.01.2006 01:00 -6.6 C 85 % 1032.6 hPa 0.0 l/m 0.2 km/h (0 Bft) NO 0.00 h 0 W/m -8.6 C -6.6 C
13.01.2006 02:00 -6.3 C 88 % 1033.1 hPa 0.0 l/m 0.5 km/h (0 Bft) O-SO 0.00 h 0 W/m -7.9 C -6.3 C
13.01.2006 03:00 -6.5 C 88 % 1033.1 hPa 0.0 l/m 1.0 km/h (0 Bft) O-SO 0.00 h 0 W/m -8.1 C -6.7 C
13.01.2006 04:00 -6.5 C 87 % 1033.1 hPa 0.0 l/m 4.6 km/h (1 Bft) O-SO 0.00 h 0 W/m -8.3 C -8.1 C
13.01.2006 05:00 -6.6 C 86 % 1033.1 hPa 0.0 l/m 6.9 km/h (2 Bft) O-SO 0.00 h 0 W/m -8.6 C -9.9 C
13.01.2006 06:00 -6.9 C 84 % 1033.9 hPa 0.0 l/m 2.2 km/h (1 Bft) O-SO 0.00 h 0 W/m -9.1 C -7.5 C
13.01.2006 07:00 -6.6 C 84 % 1034.2 hPa 0.0 l/m 1.6 km/h (1 Bft) O-SO 0.00 h 0 W/m -8.8 C -6.8 C
13.01.2006 08:00 -6.3 C 84 % 1034.1 hPa 0.0 l/m 2.6 km/h (1 Bft) O-SO 0.00 h 6 W/m -8.5 C -7.2 C
13.01.2006 09:00 -5.9 C 84 % 1034.1 hPa 0.0 l/m 0.1 km/h (0 Bft) N 0.00 h 23 W/m -8.2 C -5.9 C
13.01.2006 10:00 -5.3 C 82 % 1034.5 hPa 0.0 l/m 0.4 km/h (0 Bft) O-SO 0.00 h 52 W/m -7.9 C -5.5 C
13.01.2006 11:00 -4.8 C 80 % 1034.0 hPa 0.0 l/m 2.2 km/h (1 Bft) O-SO 0.00 h 84 W/m -7.7 C -5.7 C
13.01.2006 12:00 -4.2 C 78 % 1033.8 hPa 0.0 l/m 0.7 km/h (0 Bft) O-SO 0.00 h 91 W/m -7.4 C -4.2 C
13.01.2006 13:00 -3.9 C 76 % 1033.1 hPa 0.0 l/m 0.5 km/h (0 Bft) N-NO 0.00 h 86 W/m -7.5 C -3.9 C
13.01.2006 14:00 -3.6 C 75 % 1032.7 hPa 0.0 l/m 0.6 km/h (0 Bft) O-NO 0.00 h 73 W/m -7.3 C -3.8 C
13.01.2006 15:00 -3.6 C 75 % 1032.7 hPa 0.0 l/m 2.1 km/h (1 Bft) O-SO 0.00 h 44 W/m -7.3 C -4.5 C
13.01.2006 16:00 -4.3 C 77 % 1032.8 hPa 0.0 l/m 2.3 km/h (1 Bft) O-SO 0.00 h 16 W/m -7.7 C -4.7 C
13.01.2006 17:00 -4.9 C 78 % 1032.9 hPa 0.0 l/m 1.5 km/h (1 Bft) O-SO 0.00 h 0 W/m -8.1 C -5.4 C
13.01.2006 18:00 -5.0 C 78 % 1032.9 hPa 0.0 l/m 3.1 km/h (1 Bft) O-SO 0.00 h 0 W/m -8.2 C -6.0 C
13.01.2006 19:00 -5.1 C 79 % 1032.9 hPa 0.0 l/m 0.2 km/h (0 Bft) N-NO 0.00 h 0 W/m -8.2 C -5.1 C
13.01.2006 20:00 -5.1 C 79 % 1032.9 hPa 0.0 l/m 0.4 km/h (0 Bft) N 0.00 h 0 W/m -8.2 C -5.1 C
13.01.2006 21:00 -5.2 C 79 % 1033.8 hPa 0.0 l/m 0.3 km/h (0 Bft) O 0.00 h 0 W/m -8.3 C -5.3 C
13.01.2006 22:00 -5.2 C 79 % 1033.9 hPa 0.0 l/m 0.2 km/h (0 Bft) O-SO 0.00 h 0 W/m -8.2 C -5.2 C
13.01.2006 23:00 -5.3 C 80 % 1034.0 hPa 0.0 l/m 1.5 km/h (1 Bft) O-SO 0.00 h 0 W/m -8.2 C -5.7 C
14.01.2006 00:00 -5.2 C 80 % 1033.9 hPa 0.0 l/m 0.2 km/h (0 Bft) O-SO 0.00 h 0 W/m -8.1 C -5.2 C
14.01.2006 01:00 -5.3 C 78 % 1034.0 hPa 0.0 l/m 0.4 km/h (0 Bft) O-SO 0.00 h 0 W/m -8.4 C -5.3 C
14.01.2006 02:00 -5.5 C 77 % 1034.0 hPa 0.0 l/m 0.7 km/h (0 Bft) O-SO 0.00 h 0 W/m -8.8 C -5.6 C
14.01.2006 03:00 -5.7 C 77 % 1034.0 hPa 0.0 l/m 0.2 km/h (0 Bft) N 0.00 h 0 W/m -9.0 C -5.7 C
14.01.2006 04:00 -6.0 C 77 % 1033.5 hPa 0.0 l/m 1.3 km/h (1 Bft) O-SO 0.00 h 0 W/m -9.4 C -6.3 C
14.01.2006 05:00 -6.1 C 77 % 1033.4 hPa 0.0 l/m 0.0 km/h (0 Bft) N 0.00 h 0 W/m -9.5 C -6.1 C
14.01.2006 06:00 -6.2 C 76 % 1034.1 hPa 0.0 l/m 3.2 km/h (1 Bft) O-SO 0.00 h 0 W/m -9.7 C -7.5 C
14.01.2006 07:00 -6.4 C 77 % 1034.1 hPa 0.0 l/m 1.4 km/h (1 Bft) O-SO 0.00 h 0 W/m -9.8 C -6.9 C
14.01.2006 08:00 -6.5 C 77 % 1034.1 hPa 0.0 l/m 1.8 km/h (1 Bft) O-SO 0.00 h 9 W/m -9.8 C -7.1 C
14.01.2006 09:00 -6.3 C 76 % 1034.1 hPa 0.0 l/m 1.6 km/h (1 Bft) O-SO 0.00 h 34 W/m -9.8 C -6.6 C
14.01.2006 10:00 -5.9 C 74 % 1034.1 hPa 0.0 l/m 0.2 km/h (0 Bft) N 0.00 h 63 W/m -9.8 C -5.9 C
14.01.2006 11:00 -5.5 C 72 % 1034.0 hPa 0.0 l/m 0.4 km/h (0 Bft) O 0.00 h 91 W/m -9.7 C -5.7 C
14.01.2006 12:00 -5.1 C 71 % 1033.3 hPa 0.0 l/m 2.1 km/h (1 Bft) O-SO 0.00 h 127 W/m -9.6 C -6.0 C
14.01.2006 13:00 -4.6 C 68 % 1032.6 hPa 0.0 l/m 0.1 km/h (0 Bft) N 0.00 h 139 W/m -9.5 C -4.6 C
14.01.2006 14:00 -4.4 C 68 % 1031.7 hPa 0.0 l/m 1.8 km/h (1 Bft) SO 0.00 h 95 W/m -9.4 C -4.8 C
14.01.2006 15:00 -4.6 C 70 % 1031.8 hPa 0.0 l/m 1.1 km/h (1 Bft) W 0.00 h 56 W/m -9.2 C -5.0 C
14.01.2006 16:00 -4.9 C 72 % 1031.8 hPa 0.0 l/m 0.8 km/h (0 Bft) SO 0.00 h 13 W/m -9.1 C -5.2 C
14.01.2006 17:00 -5.3 C 74 % 1031.9 hPa 0.0 l/m 0.2 km/h (0 Bft) N 0.00 h 0 W/m -9.2 C -5.3 C
14.01.2006 18:00 -5.5 C 75 % 1031.6 hPa 0.0 l/m 0.4 km/h (0 Bft) SO 0.00 h 0 W/m -9.2 C -5.6 C
14.01.2006 19:00 -5.7 C 75 % 1030.9 hPa 0.0 l/m 0.0 km/h (0 Bft) N-NO 0.00 h 0 W/m -9.4 C -5.7 C
14.01.2006 20:00 -5.8 C 76 % 1030.9 hPa 0.0 l/m 0.8 km/h (0 Bft) N-NO 0.00 h 0 W/m -9.3 C -5.8 C
14.01.2006 21:00 -6.1 C 75 % 1031.0 hPa 0.0 l/m 0.1 km/h (0 Bft) N 0.00 h 0 W/m -9.7 C -6.1 C
14.01.2006 22:00 -6.3 C 75 % 1031.0 hPa 0.0 l/m 0.0 km/h (0 Bft) N 0.00 h 0 W/m -10.0 C -6.3 C
14.01.2006 23:00 -6.3 C 75 % 1031.0 hPa 0.0 l/m 0.7 km/h (0 Bft) O-NO 0.00 h 0 W/m -10.0 C -6.5 C
15.01.2006 00:00 -6.2 C 75 % 1029.9 hPa 0.0 l/m 0.7 km/h (0 Bft) O-SO 0.00 h 0 W/m -10.0 C -6.3 C
15.01.2006 01:00 -6.3 C 74 % 1030.0 hPa 0.0 l/m 0.1 km/h (0 Bft) O-SO 0.00 h 0 W/m -10.2 C -6.3 C
15.01.2006 02:00 -6.3 C 75 % 1030.0 hPa 0.0 l/m 0.8 km/h (0 Bft) O-SO 0.00 h 0 W/m -10.1 C -6.5 C
15.01.2006 03:00 -6.3 C 75 % 1029.6 hPa 0.0 l/m 1.5 km/h (1 Bft) O-SO 0.00 h 0 W/m -10.0 C -6.4 C
15.01.2006 04:00 -6.5 C 74 % 1028.9 hPa 0.0 l/m 0.6 km/h (0 Bft) W 0.00 h 0 W/m -10.3 C -6.5 C
15.01.2006 05:00 -6.6 C 75 % 1029.0 hPa 0.0 l/m 0.6 km/h (0 Bft) W-NW 0.00 h 0 W/m -10.4 C -6.8 C
15.01.2006 06:00 -6.6 C 74 % 1029.0 hPa 0.0 l/m 0.3 km/h (0 Bft) S-SW 0.00 h 0 W/m -10.4 C -6.6 C
15.01.2006 07:00 -6.7 C 74 % 1028.5 hPa 0.0 l/m 0.8 km/h (0 Bft) W 0.00 h 0 W/m -10.6 C -6.9 C
15.01.2006 08:00 -6.8 C 73 % 1028.8 hPa 0.0 l/m 1.4 km/h (1 Bft) O 0.00 h 9 W/m -10.8 C -7.2 C
15.01.2006 09:00 -6.4 C 72 % 1028.9 hPa 0.0 l/m 6.0 km/h (2 Bft) O-SO 0.00 h 33 W/m -10.7 C -9.2 C
15.01.2006 10:00 -5.9 C 71 % 1028.9 hPa 0.0 l/m 9.1 km/h (2 Bft) O-SO 0.00 h 66 W/m -10.4 C -9.9 C
15.01.2006 11:00 -5.6 C 69 % 1028.8 hPa 0.0 l/m 3.7 km/h (1 Bft) O-SO 0.00 h 116 W/m -10.4 C -7.2 C
15.01.2006 12:00 -5.0 C 66 % 1028.2 hPa 0.0 l/m 1.1 km/h (1 Bft) W-NW 0.30 h 212 W/m -10.3 C -5.3 C
15.01.2006 13:00 -4.3 C 64 % 1027.6 hPa 0.0 l/m 0.9 km/h (0 Bft) W-SW 1.00 h 296 W/m -10.1 C -4.5 C
15.01.2006 14:00 -3.0 C 61 % 1026.9 hPa 0.0 l/m 1.8 km/h (1 Bft) O-SO 1.00 h 263 W/m -9.5 C -3.6 C
15.01.2006 15:00 -3.3 C 61 % 1026.5 hPa 0.0 l/m 3.6 km/h (1 Bft) O 0.83 h 145 W/m -9.8 C -4.4 C
15.01.2006 16:00 -4.7 C 66 % 1026.6 hPa 0.0 l/m 0.2 km/h (0 Bft) N 0.13 h 41 W/m -10.0 C -4.7 C
15.01.2006 17:00 -6.4 C 72 % 1026.8 hPa 0.0 l/m 0.4 km/h (0 Bft) NO 0.00 h 0 W/m -10.6 C -6.5 C
15.01.2006 18:00 -7.6 C 76 % 1027.0 hPa 0.0 l/m 2.3 km/h (1 Bft) O-SO 0.00 h 0 W/m -11.1 C -8.5 C
15.01.2006 19:00 -8.0 C 76 % 1027.2 hPa 0.0 l/m 0.1 km/h (0 Bft) N 0.00 h 0 W/m -11.5 C -8.0 C
15.01.2006 20:00 -8.9 C 75 % 1027.3 hPa 0.0 l/m 0.0 km/h (0 Bft) N 0.00 h 0 W/m -12.6 C -8.9 C
15.01.2006 21:00 -9.0 C 77 % 1027.2 hPa 0.0 l/m 0.9 km/h (0 Bft) O-SO 0.00 h 0 W/m -12.3 C -9.5 C
15.01.2006 22:00 -8.6 C 79 % 1027.2 hPa 0.0 l/m 0.0 km/h (0 Bft) N 0.00 h 0 W/m -11.5 C -8.6 C
15.01.2006 23:00 -7.5 C 81 % 1027.0 hPa 0.0 l/m 1.2 km/h (1 Bft) O-SO 0.00 h 0 W/m -10.2 C -8.1 C
Min-Datum _ 15.01.06 15.01.06 15.01.06 - 09.01.06 - - - 15.01.06 15.01.06
_ Min-Zeit 22:03 14:40 14:38 - 00:16 - - - 22:03 21:13
Minimum _ -9.6 C 56 % 1026.3 hPa - 0.0 km/h (0 Bft) - - - -13.0 C -12.9 C
Max-Datum _ 12.01.06 13.01.06 11.01.06 09.01.06 11.01.06 - 12.01.06 11.01.06 12.01.06 12.01.06
_ Max-Zeit 14:38 01:26 22:30 00:00 00:54 - 14:08 13:14 17:55 14:38
Maximum _ -0.2 C 88 % 1035.4 hPa 0.0 l/m 16.4 km/h
O-SO (3 Bft)
- 0.05 h 360 W/m -5.9 C -0.2 C
Durchschnitt _ -5.0 C 75 % 1032.3 hPa #0.0 l/m 1.1 km/h (1 Bft) O-SO #9:23 h 92 W/m -8.7 C -5.3 C
© Kaiko 2006